sensor_id;sensor_type;location;lat;lon;timestamp;temperature;humidity
8947;DHT22;4508;48.790;9.028;2023-02-02T00:00:19;5.10;99.90
8947;DHT22;4508;48.790;9.028;2023-02-02T00:02:47;5.10;99.90
8947;DHT22;4508;48.790;9.028;2023-02-02T00:05:14;5.10;99.90
8947;DHT22;4508;48.790;9.028;2023-02-02T00:07:41;5.10;99.90
8947;DHT22;4508;48.790;9.028;2023-02-02T00:10:09;5.00;99.90
8947;DHT22;4508;48.790;9.028;2023-02-02T00:12:35;5.00;99.90
8947;DHT22;4508;48.790;9.028;2023-02-02T00:15:02;5.10;99.90
8947;DHT22;4508;48.790;9.028;2023-02-02T00:29:48;4.90;99.90
8947;DHT22;4508;48.790;9.028;2023-02-02T00:32:18;5.10;99.90
8947;DHT22;4508;48.790;9.028;2023-02-02T00:34:44;5.10;99.90
8947;DHT22;4508;48.790;9.028;2023-02-02T00:37:13;4.90;99.90
8947;DHT22;4508;48.790;9.028;2023-02-02T00:39:39;5.00;99.90
8947;DHT22;4508;48.790;9.028;2023-02-02T00:42:08;5.10;99.90
8947;DHT22;4508;48.790;9.028;2023-02-02T00:44:35;5.00;99.90
8947;DHT22;4508;48.790;9.028;2023-02-02T00:47:19;5.10;99.90
8947;DHT22;4508;48.790;9.028;2023-02-02T00:49:46;5.00;99.90
8947;DHT22;4508;48.790;9.028;2023-02-02T00:52:14;5.10;99.90
8947;DHT22;4508;48.790;9.028;2023-02-02T00:54:41;5.10;99.90
8947;DHT22;4508;48.790;9.028;2023-02-02T00:57:09;5.10;99.90
8947;DHT22;4508;48.790;9.028;2023-02-02T00:59:37;5.10;99.90
8947;DHT22;4508;48.790;9.028;2023-02-02T01:02:05;5.10;99.90
8947;DHT22;4508;48.790;9.028;2023-02-02T01:11:56;5.00;99.90
8947;DHT22;4508;48.790;9.028;2023-02-02T01:16:50;5.00;99.90
8947;DHT22;4508;48.790;9.028;2023-02-02T01:19:17;5.10;99.90
8947;DHT22;4508;48.790;9.028;2023-02-02T01:21:44;5.10;99.90
8947;DHT22;4508;48.790;9.028;2023-02-02T01:24:10;5.00;99.90
8947;DHT22;4508;48.790;9.028;2023-02-02T01:26:38;5.00;99.90
8947;DHT22;4508;48.790;9.028;2023-02-02T01:29:05;4.90;99.90
8947;DHT22;4508;48.790;9.028;2023-02-02T01:36:27;4.80;99.90
8947;DHT22;4508;48.790;9.028;2023-02-02T01:41:23;4.70;99.90
8947;DHT22;4508;48.790;9.028;2023-02-02T01:51:20;4.70;99.90
8947;DHT22;4508;48.790;9.028;2023-02-02T01:53:49;4.80;99.90
8947;DHT22;4508;48.790;9.028;2023-02-02T01:56:19;4.90;99.90
8947;DHT22;4508;48.790;9.028;2023-02-02T01:58:49;4.90;99.90
8947;DHT22;4508;48.790;9.028;2023-02-02T02:03:45;4.70;99.90
8947;DHT22;4508;48.790;9.028;2023-02-02T02:06:13;4.90;99.90
8947;DHT22;4508;48.790;9.028;2023-02-02T02:08:45;4.90;99.90
8947;DHT22;4508;48.790;9.028;2023-02-02T02:11:13;4.90;99.90
8947;DHT22;4508;48.790;9.028;2023-02-02T02:13:40;5.00;99.90
8947;DHT22;4508;48.790;9.028;2023-02-02T02:16:31;4.80;99.90
8947;DHT22;4508;48.790;9.028;2023-02-02T02:19:14;4.90;99.90
8947;DHT22;4508;48.790;9.028;2023-02-02T02:21:55;5.00;99.90
8947;DHT22;4508;48.790;9.028;2023-02-02T02:25:27;4.80;99.90
8947;DHT22;4508;48.790;9.028;2023-02-02T02:28:49;4.80;99.90
8947;DHT22;4508;48.790;9.028;2023-02-02T02:31:57;5.00;99.90
8947;DHT22;4508;48.790;9.028;2023-02-02T02:34:32;5.00;99.90
8947;DHT22;4508;48.790;9.028;2023-02-02T02:37:09;4.90;99.90
8947;DHT22;4508;48.790;9.028;2023-02-02T02:39:41;4.90;99.90
8947;DHT22;4508;48.790;9.028;2023-02-02T02:42:11;4.90;99.90
8947;DHT22;4508;48.790;9.028;2023-02-02T02:44:39;4.90;99.90
8947;DHT22;4508;48.790;9.028;2023-02-02T02:47:08;5.00;99.90
8947;DHT22;4508;48.790;9.028;2023-02-02T02:49:41;4.90;99.90
8947;DHT22;4508;48.790;9.028;2023-02-02T02:52:08;5.00;99.90
8947;DHT22;4508;48.790;9.028;2023-02-02T02:54:39;5.00;99.90
8947;DHT22;4508;48.790;9.028;2023-02-02T02:57:19;4.90;99.90
8947;DHT22;4508;48.790;9.028;2023-02-02T02:59:54;4.80;99.90
8947;DHT22;4508;48.790;9.028;2023-02-02T03:02:32;4.90;99.90
8947;DHT22;4508;48.790;9.028;2023-02-02T03:05:10;5.10;99.90
8947;DHT22;4508;48.790;9.028;2023-02-02T03:07:42;4.90;99.90
8947;DHT22;4508;48.790;9.028;2023-02-02T03:12:43;4.90;99.90
8947;DHT22;4508;48.790;9.028;2023-02-02T03:17:40;5.00;99.90
8947;DHT22;4508;48.790;9.028;2023-02-02T03:25:02;5.00;99.90
8947;DHT22;4508;48.790;9.028;2023-02-02T03:37:21;5.10;99.90
8947;DHT22;4508;48.790;9.028;2023-02-02T03:39:48;5.20;99.90
8947;DHT22;4508;48.790;9.028;2023-02-02T03:42:14;5.00;99.90
8947;DHT22;4508;48.790;9.028;2023-02-02T12:54:01;5.60;99.90
8947;DHT22;4508;48.790;9.028;2023-02-02T12:56:37;5.60;99.90
8947;DHT22;4508;48.790;9.028;2023-02-02T12:59:13;5.50;99.90
8947;DHT22;4508;48.790;9.028;2023-02-02T13:01:54;5.50;99.90
8947;DHT22;4508;48.790;9.028;2023-02-02T13:04:33;5.60;99.90
8947;DHT22;4508;48.790;9.028;2023-02-02T13:07:19;5.50;99.90
8947;DHT22;4508;48.790;9.028;2023-02-02T13:09:57;5.50;99.90
8947;DHT22;4508;48.790;9.028;2023-02-02T13:12:27;5.50;99.90
8947;DHT22;4508;48.790;9.028;2023-02-02T13:14:56;5.50;99.90
8947;DHT22;4508;48.790;9.028;2023-02-02T13:17:28;5.30;99.90
8947;DHT22;4508;48.790;9.028;2023-02-02T13:19:58;5.40;99.90
8947;DHT22;4508;48.790;9.028;2023-02-02T13:22:28;5.50;99.90
8947;DHT22;4508;48.790;9.028;2023-02-02T13:25:00;5.40;99.90
8947;DHT22;4508;48.790;9.028;2023-02-02T13:27:30;5.40;99.90
8947;DHT22;4508;48.790;9.028;2023-02-02T13:30:02;5.40;99.90
8947;DHT22;4508;48.790;9.028;2023-02-02T13:32:33;5.50;99.90
8947;DHT22;4508;48.790;9.028;2023-02-02T13:35:04;5.50;99.90
8947;DHT22;4508;48.790;9.028;2023-02-02T13:37:35;5.60;99.90
8947;DHT22;4508;48.790;9.028;2023-02-02T13:40:17;5.60;99.90
8947;DHT22;4508;48.790;9.028;2023-02-02T13:42:51;5.60;99.90
8947;DHT22;4508;48.790;9.028;2023-02-02T13:45:45;5.60;99.90
8947;DHT22;4508;48.790;9.028;2023-02-02T13:48:20;5.60;99.90
8947;DHT22;4508;48.790;9.028;2023-02-02T13:51:03;5.60;99.90
8947;DHT22;4508;48.790;9.028;2023-02-02T13:53:44;5.70;99.90
8947;DHT22;4508;48.790;9.028;2023-02-02T13:56:37;5.70;99.90
8947;DHT22;4508;48.790;9.028;2023-02-02T13:59:22;5.70;99.90
8947;DHT22;4508;48.790;9.028;2023-02-02T14:01:51;5.70;99.90
8947;DHT22;4508;48.790;9.028;2023-02-02T14:04:21;5.70;99.90
8947;DHT22;4508;48.790;9.028;2023-02-02T14:06:54;5.70;99.90
8947;DHT22;4508;48.790;9.028;2023-02-02T14:09:24;5.70;99.90
8947;DHT22;4508;48.790;9.028;2023-02-02T14:11:56;5.80;99.90
8947;DHT22;4508;48.790;9.028;2023-02-02T14:14:25;5.80;99.90
8947;DHT22;4508;48.790;9.028;2023-02-02T14:17:00;5.80;99.90
8947;DHT22;4508;48.790;9.028;2023-02-02T14:19:51;5.90;99.90
8947;DHT22;4508;48.790;9.028;2023-02-02T14:22:42;5.80;99.90
8947;DHT22;4508;48.790;9.028;2023-02-02T14:25:46;5.90;99.90
8947;DHT22;4508;48.790;9.028;2023-02-02T14:28:39;5.80;99.90
8947;DHT22;4508;48.790;9.028;2023-02-02T14:31:29;5.90;99.90
8947;DHT22;4508;48.790;9.028;2023-02-02T14:37:27;5.90;99.90
8947;DHT22;4508;48.790;9.028;2023-02-02T14:40:01;6.00;99.90
8947;DHT22;4508;48.790;9.028;2023-02-02T14:42:38;5.90;99.90
8947;DHT22;4508;48.790;9.028;2023-02-02T14:45:28;5.90;99.90
8947;DHT22;4508;48.790;9.028;2023-02-02T14:47:58;5.90;99.90
8947;DHT22;4508;48.790;9.028;2023-02-02T14:50:31;6.00;99.90
8947;DHT22;4508;48.790;9.028;2023-02-02T14:53:03;5.80;99.90
8947;DHT22;4508;48.790;9.028;2023-02-02T14:55:31;5.80;99.90
8947;DHT22;4508;48.790;9.028;2023-02-02T14:58:00;5.80;99.90
8947;DHT22;4508;48.790;9.028;2023-02-02T15:00:30;6.00;99.90
8947;DHT22;4508;48.790;9.028;2023-02-02T15:03:32;6.00;99.90
8947;DHT22;4508;48.790;9.028;2023-02-02T15:06:05;6.10;99.90
8947;DHT22;4508;48.790;9.028;2023-02-02T15:08:38;6.00;99.90
8947;DHT22;4508;48.790;9.028;2023-02-02T15:11:07;6.10;99.90
8947;DHT22;4508;48.790;9.028;2023-02-02T15:14:09;6.00;99.90
8947;DHT22;4508;48.790;9.028;2023-02-02T15:16:39;5.90;99.90
8947;DHT22;4508;48.790;9.028;2023-02-02T15:19:14;5.90;99.90
8947;DHT22;4508;48.790;9.028;2023-02-02T15:21:46;5.90;99.90
8947;DHT22;4508;48.790;9.028;2023-02-02T15:24:17;6.00;99.90
8947;DHT22;4508;48.790;9.028;2023-02-02T15:26:46;5.90;99.90
8947;DHT22;4508;48.790;9.028;2023-02-02T15:29:16;5.70;99.90
8947;DHT22;4508;48.790;9.028;2023-02-02T15:36:48;5.70;99.90
8947;DHT22;4508;48.790;9.028;2023-02-02T15:39:25;5.70;99.90
8947;DHT22;4508;48.790;9.028;2023-02-02T15:41:53;5.80;99.90
8947;DHT22;4508;48.790;9.028;2023-02-02T15:49:33;5.40;99.90
